Fargo, ND (58102)

3:39 AM CDT on August 24, 2016 (GMT -0500)
Hector International | | Change Station

Elev 899 ft 46.91 °N, 96.81 °W | Updated 46 minutes ago

Overcast
Overcast
68 °F
Feels Like 68 °F
N
8
Wind Variable Wind from WNW

Today
High -- | Low -- °F
--% Chance of Precip.
Yesterday
High -- | Low -- °F
Precip. -- in
Pressure 29.81 in
Visibility 10.0 miles
Clouds Mostly Cloudy 6500 ft
Overcast 11000 ft
Dew Point 57 °F
Humidity 68%
Rainfall 0.00 in
Snow Depth Not available.
6:37 AM 8:20 PM
Waning Gibbous, 59% visible
METAR KFAR 240753Z AUTO 29007KT 10SM BKN065 OVC110 20/14 A2982 RMK AO2 SLP092 T02000139 TSNO
Pressure 29.81 in
Visibility 10.0 miles
Clouds Mostly Cloudy 6500 ft
Overcast 11000 ft
Dew Point 57 °F
Humidity 68%
Rainfall 0.00 in
Snow Depth Not available.
6:37 AM 8:20 PM
Waning Gibbous, 59% visible
METAR KFAR 240753Z AUTO 29007KT 10SM BKN065 OVC110 20/14 A2982 RMK AO2 SLP092 T02000139 TSNO

10-Day Weather Forecast

Almanac

Astronomy

Aug. 24, 2016 Rise Set
Actual Time
Civil Twilight
Nautical Twilight
Astronomical Twilight
Moon
Length of Visible Light
Length of Day
Tomorrow will be .
, % of the Moon is Illuminated

Today's Extremes

State Highs State Lows

Community

WunderPhotos

Upload Photos

1,934,560 photos uploaded!

WunderBlog® & News

Nearby

Air Quality

  Air Quality AQ Index Pollutant
Not available.

Snow Depth

Station Depth Elevation

Earthquake Activity

City Distance Mag. Time & Date
Minimum magnitude displayed is 2.5.

Coastal Water Temperatures

Place Temperature

Stations

Nearby Weather Stations

Station Location Temp. Windchill Dew Point Humidity Wind Precip. Elev Updated Type
                   

Watches & Warnings

There are currently no watches in effect.